createdAt,value
2022-08-21T00:02:25.662Z,97018.44
2022-08-21T00:04:57.649Z,97020.41
2022-08-21T00:07:28.075Z,97023.59
2022-08-21T00:09:56.784Z,97010.19
2022-08-21T00:12:25.280Z,97016.53
2022-08-21T00:14:57.065Z,97017.28
2022-08-21T00:17:26.450Z,97017.28
2022-08-21T00:19:54.712Z,97008.25
2022-08-21T00:22:23.003Z,97007.16
2022-08-21T00:24:52.621Z,97008.56
2022-08-21T00:27:21.188Z,97012.16
2022-08-21T00:29:49.414Z,97010.19
2022-08-21T00:32:24.035Z,97020.47
2022-08-21T00:34:53.467Z,97014.44
2022-08-21T00:37:22.243Z,97014.00
2022-08-21T00:39:52.001Z,97011.13
2022-08-21T00:42:21.322Z,97006.63
2022-08-21T00:44:51.921Z,97000.88
2022-08-21T00:47:21.337Z,96995.88
2022-08-21T00:49:49.793Z,96992.16
2022-08-21T00:52:23.421Z,97000.31
2022-08-21T00:54:57.818Z,96998.19
2022-08-21T00:57:32.516Z,96996.53
2022-08-21T01:00:06.564Z,96987.78
2022-08-21T01:02:36.196Z,96994.06
2022-08-21T01:05:06.692Z,96996.72
2022-08-21T01:07:35.124Z,96988.31
2022-08-21T01:10:07.819Z,96992.13
2022-08-21T01:12:37.661Z,96988.06
2022-08-21T01:15:09.613Z,96992.25
2022-08-21T01:17:39.519Z,96985.94
2022-08-21T01:20:13.287Z,96985.38
2022-08-21T01:22:43.119Z,96993.25
2022-08-21T01:25:14.158Z,96991.38
2022-08-21T01:27:42.998Z,96992.38
2022-08-21T01:30:17.427Z,96995.94
2022-08-21T01:32:46.186Z,96989.56
2022-08-21T01:35:16.730Z,96985.72
2022-08-21T01:37:47.429Z,96987.66
2022-08-21T01:40:18.402Z,96984.97
2022-08-21T01:42:48.009Z,96980.66
2022-08-21T01:45:18.083Z,96981.06
2022-08-21T01:47:46.780Z,96984.97
2022-08-21T01:50:19.665Z,96979.84
2022-08-21T01:52:51.165Z,96988.03
2022-08-21T01:55:20.594Z,96983.31
2022-08-21T01:57:50.523Z,96992.81
2022-08-21T02:00:23.821Z,96984.97
2022-08-21T02:02:53.351Z,96996.13
2022-08-21T02:05:22.548Z,96989.63
2022-08-21T02:07:55.370Z,96986.53
2022-08-21T02:10:28.191Z,96984.56
2022-08-21T02:12:57.722Z,96992.97
2022-08-21T02:15:26.392Z,96979.25
2022-08-21T02:17:58.702Z,96977.91
2022-08-21T02:20:30.835Z,96976.06
2022-08-21T02:23:01.273Z,96979.16
2022-08-21T02:25:31.389Z,96968.50
2022-08-21T02:28:01.942Z,96970.25
2022-08-21T02:30:36.462Z,96971.84
2022-08-21T02:33:04.819Z,96968.16
2022-08-21T02:35:33.882Z,96972.69
2022-08-21T02:38:08.511Z,96964.84
2022-08-21T02:40:48.413Z,96968.56
2022-08-21T02:43:20.833Z,96962.34
2022-08-21T02:45:51.015Z,96967.03
2022-08-21T02:48:23.573Z,96963.78
2022-08-21T02:50:56.854Z,96979.75
2022-08-21T02:53:27.798Z,96975.31
2022-08-21T02:55:59.582Z,96970.97
2022-08-21T02:58:32.262Z,96971.63
2022-08-21T03:01:00.678Z,96972.69
2022-08-21T03:03:30.378Z,96971.91
2022-08-21T03:05:59.166Z,96965.84
2022-08-21T03:08:28.928Z,96966.38
2022-08-21T03:10:57.528Z,96971.72
2022-08-21T03:13:25.854Z,96966.47
2022-08-21T03:15:54.235Z,96962.41
2022-08-21T03:18:23.206Z,96973.34
2022-08-21T03:20:52.279Z,96987.28
2022-08-21T03:23:20.682Z,96973.13
2022-08-21T03:25:52.049Z,96979.28
2022-08-21T03:28:24.658Z,96983.44
2022-08-21T03:30:54.425Z,96987.00
2022-08-21T03:33:23.705Z,96987.44
2022-08-21T03:35:58.841Z,96986.56
2022-08-21T03:38:28.117Z,96983.19
2022-08-21T03:40:58.552Z,96983.81
2022-08-21T03:43:27.581Z,96987.97
2022-08-21T03:46:00.052Z,96981.50
2022-08-21T03:48:28.710Z,96983.09
2022-08-21T03:50:57.599Z,96989.31
2022-08-21T03:53:26.623Z,96994.38
2022-08-21T03:55:56.951Z,96995.34
2022-08-21T03:58:28.620Z,96994.19
2022-08-21T04:01:01.053Z,96993.56
2022-08-21T04:03:30.389Z,96994.53
2022-08-21T04:05:58.951Z,96997.66
2022-08-21T04:08:27.722Z,96991.63
2022-08-21T04:11:00.726Z,96992.34
2022-08-21T04:13:29.887Z,96995.97
2022-08-21T04:16:00.096Z,96991.97
2022-08-21T04:18:28.526Z,96995.44
2022-08-21T04:21:00.971Z,96997.84
2022-08-21T04:23:30.478Z,97006.44
2022-08-21T04:26:00.772Z,97000.69
2022-08-21T04:28:30.447Z,97006.88
2022-08-21T04:30:59.744Z,97006.09
2022-08-21T04:33:28.350Z,97012.75
2022-08-21T04:35:56.881Z,97013.19
2022-08-21T04:38:25.593Z,97022.53
2022-08-21T04:40:54.506Z,97019.34
2022-08-21T04:43:24.458Z,97024.91
2022-08-21T04:45:54.458Z,97026.03
2022-08-21T04:48:25.401Z,97027.44
2022-08-21T04:50:59.924Z,97032.59
2022-08-21T04:53:35.786Z,97029.22
2022-08-21T04:56:12.215Z,97027.50
2022-08-21T04:58:44.712Z,97034.16
2022-08-21T05:01:21.501Z,97038.28
2022-08-21T05:03:53.054Z,97036.88
2022-08-21T05:06:22.297Z,97035.81
2022-08-21T05:08:57.129Z,97042.81
2022-08-21T05:11:32.500Z,97045.16
2022-08-21T05:14:02.538Z,97042.03
2022-08-21T05:16:37.000Z,97039.53
2022-08-21T05:19:07.461Z,97037.31
2022-08-21T05:21:36.737Z,97048.41
2022-08-21T05:24:05.721Z,97043.00
2022-08-21T05:26:45.553Z,97037.31
2022-08-21T05:29:18.298Z,97042.81
2022-08-21T05:31:49.428Z,97044.56
2022-08-21T05:34:24.282Z,97037.34
2022-08-21T05:36:52.647Z,97031.34
2022-08-21T05:39:21.228Z,97041.56
2022-08-21T05:41:50.248Z,97038.72
2022-08-21T05:44:20.472Z,97048.69
2022-08-21T05:46:50.653Z,97051.91
2022-08-21T05:49:19.436Z,97054.75
2022-08-21T05:51:47.762Z,97057.78
2022-08-21T05:54:16.545Z,97056.59
2022-08-21T05:56:46.510Z,97057.31
2022-08-21T05:59:14.996Z,97059.97
2022-08-21T06:01:46.169Z,97053.38
2022-08-21T06:04:15.139Z,97055.97
2022-08-21T06:06:43.499Z,97050.41
2022-08-21T06:09:11.844Z,97046.59
2022-08-21T06:11:40.112Z,97052.38
2022-08-21T06:14:08.738Z,97054.94
2022-08-21T06:16:37.135Z,97055.63
2022-08-21T06:19:06.816Z,97061.19
2022-08-21T06:21:35.722Z,97063.09
2022-08-21T06:24:05.432Z,97068.69
2022-08-21T06:26:33.981Z,97064.16
2022-08-21T06:29:02.347Z,97067.47
2022-08-21T06:31:31.302Z,97061.47
2022-08-21T06:34:00.006Z,97070.50
2022-08-21T06:36:29.698Z,97066.13
2022-08-21T06:38:58.147Z,97071.50
2022-08-21T06:41:27.072Z,97066.06
2022-08-21T06:43:57.234Z,97069.97
2022-08-21T06:46:27.532Z,97063.53
2022-08-21T06:48:56.714Z,97069.34
2022-08-21T06:51:26.439Z,97062.13
2022-08-21T06:53:58.817Z,97069.53
2022-08-21T06:56:28.025Z,97060.59
2022-08-21T06:58:56.377Z,97059.41
2022-08-21T07:01:27.984Z,97055.66
2022-08-21T07:03:56.629Z,97060.34
2022-08-21T07:06:25.937Z,97051.84
2022-08-21T07:08:55.707Z,97057.69
2022-08-21T07:11:27.959Z,97050.00
2022-08-21T07:13:57.572Z,97053.59
2022-08-21T07:16:26.191Z,97057.66
2022-08-21T07:18:54.489Z,97052.84
2022-08-21T07:21:25.965Z,97055.91
2022-08-21T07:23:56.140Z,97056.72
2022-08-21T07:26:26.914Z,97056.59
2022-08-21T07:28:55.982Z,97061.31
2022-08-21T07:31:27.213Z,97061.06
2022-08-21T07:33:56.196Z,97055.53
2022-08-21T07:36:24.826Z,97065.94
2022-08-21T07:38:53.256Z,97059.00
2022-08-21T07:41:28.655Z,97070.31
2022-08-21T07:43:58.484Z,97073.53
2022-08-21T07:46:28.547Z,97067.22
2022-08-21T07:48:57.248Z,97071.16
2022-08-21T07:51:30.894Z,97072.66
2022-08-21T07:54:00.754Z,97076.00
2022-08-21T07:56:33.302Z,97076.59
2022-08-21T07:59:03.674Z,97080.78
2022-08-21T08:01:32.515Z,97073.41
2022-08-21T08:04:00.976Z,97077.31
2022-08-21T08:06:29.458Z,97074.28
2022-08-21T08:08:57.867Z,97070.34
2022-08-21T08:11:26.460Z,97074.69
2022-08-21T08:13:58.192Z,97070.28
2022-08-21T08:16:26.843Z,97070.84
2022-08-21T08:18:56.492Z,97074.75
2022-08-21T08:21:24.802Z,97075.50
2022-08-21T08:23:53.236Z,97072.53
2022-08-21T08:26:21.504Z,97073.34
2022-08-21T08:28:49.783Z,97072.72
2022-08-21T08:31:19.593Z,97071.84
2022-08-21T08:33:47.966Z,97070.50
2022-08-21T08:36:18.346Z,97072.75
2022-08-21T08:38:49.365Z,97067.91
2022-08-21T08:41:22.691Z,97074.78
2022-08-21T08:43:55.769Z,97075.13
2022-08-21T08:46:43.906Z,97074.63
2022-08-21T08:49:21.366Z,97076.19
2022-08-21T08:51:57.579Z,97076.56
2022-08-21T08:54:34.400Z,97079.22
2022-08-21T08:57:08.814Z,97077.75
2022-08-21T08:59:43.798Z,97076.03
2022-08-21T09:02:16.433Z,97074.22
2022-08-21T09:04:47.616Z,97067.78
2022-08-21T09:07:34.374Z,97069.66
2022-08-21T09:10:16.358Z,97065.38
2022-08-21T09:12:58.287Z,97067.63
2022-08-21T09:15:34.818Z,97065.97
2022-08-21T09:18:28.476Z,97058.81
2022-08-21T09:21:12.260Z,97055.91
2022-08-21T09:23:58.918Z,97056.44
2022-08-21T09:26:34.349Z,97061.91
2022-08-21T09:29:03.225Z,97053.50
2022-08-21T09:31:38.481Z,97055.66
2022-08-21T09:34:12.346Z,97064.75
2022-08-21T09:36:45.176Z,97059.03
2022-08-21T09:39:25.508Z,97047.97
2022-08-21T09:42:00.888Z,97051.22
2022-08-21T09:44:33.320Z,97052.56
2022-08-21T09:47:01.986Z,97048.59
2022-08-21T09:49:35.470Z,97042.59
2022-08-21T09:52:08.750Z,97046.94
2022-08-21T09:54:42.426Z,97042.03
2022-08-21T09:57:50.223Z,97042.63
2022-08-21T10:00:27.956Z,97026.31
2022-08-21T10:02:56.338Z,97028.44
2022-08-21T10:05:29.294Z,97035.25
2022-08-21T10:07:57.633Z,97034.84
2022-08-21T10:10:31.673Z,97023.84
2022-08-21T10:13:14.860Z,97022.47
2022-08-21T10:16:02.428Z,97018.69
2022-08-21T10:18:41.049Z,97012.19
2022-08-21T10:21:22.962Z,97009.81
2022-08-21T10:24:11.800Z,97011.38
2022-08-21T10:27:16.602Z,97010.81
2022-08-21T10:29:57.901Z,97002.19
2022-08-21T10:33:09.503Z,96998.16
2022-08-21T10:35:47.899Z,96994.34
2022-08-21T10:39:02.742Z,97004.84
2022-08-21T10:42:04.517Z,96998.72
2022-08-21T10:44:47.178Z,96998.97
2022-08-21T10:47:25.053Z,96996.56
2022-08-21T10:50:12.915Z,96991.69
2022-08-21T10:53:10.561Z,96991.53
2022-08-21T10:55:46.825Z,96984.94
2022-08-21T10:58:23.221Z,96978.09
2022-08-21T11:00:59.212Z,96979.66
2022-08-21T11:03:37.745Z,96966.94
2022-08-21T11:06:15.556Z,96974.50
2022-08-21T11:08:47.886Z,96981.47
2022-08-21T11:11:24.994Z,96975.34
2022-08-21T11:14:04.946Z,96969.56
2022-08-21T11:16:42.437Z,96968.13
2022-08-21T11:19:23.377Z,96965.22
2022-08-21T11:22:01.226Z,96981.28
2022-08-21T11:24:37.788Z,96986.84
2022-08-21T11:27:23.229Z,96976.44
2022-08-21T11:29:55.972Z,96977.38
2022-08-21T11:33:02.977Z,96973.41
2022-08-21T11:35:41.579Z,96969.94
2022-08-21T11:38:28.157Z,96967.59
2022-08-21T11:41:18.769Z,96967.56
2022-08-21T11:44:02.400Z,96965.97
2022-08-21T11:46:42.819Z,96963.19
2022-08-21T11:49:35.504Z,96967.56
2022-08-21T11:52:18.591Z,96960.03
2022-08-21T11:54:55.174Z,96956.47
2022-08-21T11:57:30.810Z,96954.16
2022-08-21T12:00:09.549Z,96951.88
2022-08-21T12:02:48.598Z,96947.16
2022-08-21T12:05:31.895Z,96948.03
2022-08-21T12:08:12.592Z,96950.63
2022-08-21T12:10:48.419Z,96946.00
2022-08-21T12:13:39.841Z,96938.91
2022-08-21T12:16:16.425Z,96935.91
2022-08-21T12:18:47.045Z,96936.69
2022-08-21T12:21:30.045Z,96936.69
2022-08-21T12:24:22.816Z,96941.88
2022-08-21T12:27:00.396Z,96933.13
2022-08-21T12:29:33.807Z,96929.34
2022-08-21T12:32:25.815Z,96927.78
2022-08-21T12:35:03.596Z,96927.63
2022-08-21T12:37:42.228Z,96931.03
2022-08-21T12:40:24.137Z,96913.22
2022-08-21T12:43:00.245Z,96905.53
2022-08-21T12:45:35.710Z,96914.94
2022-08-21T12:48:15.128Z,96910.50
2022-08-21T12:50:50.476Z,96909.47
2022-08-21T12:53:31.642Z,96914.56
2022-08-21T12:56:05.337Z,96902.50
2022-08-21T12:58:34.937Z,96890.44
2022-08-21T13:01:08.961Z,96890.03
2022-08-21T13:03:41.615Z,96876.41
2022-08-21T13:06:19.719Z,96891.59
2022-08-21T13:08:59.774Z,96896.44
2022-08-21T13:11:33.666Z,96890.69
2022-08-21T13:14:06.247Z,96883.88
2022-08-21T13:16:37.493Z,96888.03
2022-08-21T13:19:10.358Z,96890.66
2022-08-21T13:21:45.101Z,96886.44
2022-08-21T13:24:41.362Z,96885.25
2022-08-21T13:27:26.389Z,96882.16
2022-08-21T13:30:12.305Z,96881.22
2022-08-21T13:32:46.491Z,96877.00
2022-08-21T13:35:24.384Z,96869.09
2022-08-21T13:37:54.924Z,96869.88
2022-08-21T13:40:30.766Z,96867.84
2022-08-21T13:43:02.344Z,96866.38
2022-08-21T13:45:35.385Z,96867.19
2022-08-21T13:48:06.930Z,96859.50
2022-08-21T13:50:41.678Z,96870.09
2022-08-21T13:53:25.583Z,96861.38
2022-08-21T13:55:59.953Z,96854.88
2022-08-21T13:58:34.439Z,96859.34
2022-08-21T14:01:06.587Z,96862.78
2022-08-21T14:03:41.157Z,96857.41
2022-08-21T14:06:23.643Z,96863.72
2022-08-21T14:08:57.610Z,96860.66
2022-08-21T14:11:28.773Z,96867.59
2022-08-21T14:14:04.899Z,96855.97
2022-08-21T14:16:48.014Z,96855.50
2022-08-21T14:19:25.777Z,96857.44
2022-08-21T14:21:56.968Z,96848.41
2022-08-21T14:24:35.838Z,96848.69
2022-08-21T14:27:10.103Z,96846.50
2022-08-21T14:29:43.849Z,96846.16
2022-08-21T14:32:21.880Z,96847.94
2022-08-21T14:34:55.153Z,96845.69
2022-08-21T14:37:28.625Z,96840.34
2022-08-21T14:39:58.384Z,96840.91
2022-08-21T14:42:28.794Z,96842.56
2022-08-21T14:45:04.163Z,96838.41
2022-08-21T14:47:33.733Z,96839.47
2022-08-21T14:50:02.690Z,96836.13
2022-08-21T14:52:33.572Z,96839.28
2022-08-21T14:55:02.969Z,96837.63
2022-08-21T14:57:34.229Z,96845.34
2022-08-21T15:00:04.018Z,96835.28
2022-08-21T15:02:33.214Z,96833.75
2022-08-21T15:05:02.691Z,96833.31
2022-08-21T15:07:33.551Z,96830.06
2022-08-21T15:10:02.714Z,96820.97
2022-08-21T15:12:32.426Z,96837.50
2022-08-21T15:15:01.723Z,96832.38
2022-08-21T15:17:31.234Z,96829.28
2022-08-21T15:20:00.455Z,96829.56
2022-08-21T15:22:29.422Z,96826.50
2022-08-21T15:24:59.065Z,96825.31
2022-08-21T15:27:27.391Z,96828.09
2022-08-21T15:29:56.902Z,96829.84
2022-08-21T15:32:30.229Z,96821.19
2022-08-21T15:34:59.633Z,96814.44
2022-08-21T15:37:28.083Z,96817.22
2022-08-21T15:39:56.474Z,96815.13
2022-08-21T15:42:28.523Z,96808.41
2022-08-21T15:44:59.062Z,96807.22
2022-08-21T15:47:31.588Z,96806.44
2022-08-21T15:50:00.219Z,96799.94
2022-08-21T15:52:28.853Z,96800.16
2022-08-21T15:54:57.180Z,96800.34
2022-08-21T15:57:28.064Z,96798.47
2022-08-21T16:00:06.410Z,96797.97
2022-08-21T16:02:44.862Z,96807.13
2022-08-21T16:05:17.342Z,96796.16
2022-08-21T16:07:47.248Z,96788.63
2022-08-21T16:10:17.799Z,96800.78
2022-08-21T16:12:54.317Z,96788.03
2022-08-21T16:15:24.472Z,96786.44
2022-08-21T16:17:56.172Z,96794.56
2022-08-21T16:20:29.368Z,96788.44
2022-08-21T16:23:00.868Z,96783.03
2022-08-21T16:25:30.706Z,96787.38
2022-08-21T16:28:07.575Z,96789.66
2022-08-21T16:30:39.840Z,96790.88
2022-08-21T16:33:15.491Z,96793.69
2022-08-21T16:35:44.617Z,96787.84
2022-08-21T16:38:14.383Z,96783.94
2022-08-21T16:40:43.600Z,96787.44
2022-08-21T16:43:14.652Z,96777.47
2022-08-21T16:45:45.609Z,96773.00
2022-08-21T16:48:14.700Z,96775.81
2022-08-21T16:50:47.884Z,96776.03
2022-08-21T16:53:19.744Z,96778.72
2022-08-21T16:55:50.718Z,96768.53
2022-08-21T16:58:27.589Z,96775.44
2022-08-21T17:00:57.870Z,96780.28
2022-08-21T17:03:35.332Z,96779.50
2022-08-21T17:06:04.897Z,96774.16
2022-08-21T17:08:35.217Z,96773.13
2022-08-21T17:11:08.270Z,96771.16
2022-08-21T17:13:40.010Z,96771.66
2022-08-21T17:16:09.269Z,96770.38
2022-08-21T17:18:38.369Z,96768.50
2022-08-21T17:21:08.277Z,96775.44
2022-08-21T17:23:37.445Z,96773.28
2022-08-21T17:26:12.650Z,96771.91
2022-08-21T17:28:48.728Z,96767.75
2022-08-21T17:31:25.629Z,96774.38
2022-08-21T17:33:57.450Z,96771.81
2022-08-21T17:36:33.416Z,96772.91
2022-08-21T17:39:05.885Z,96775.56
2022-08-21T17:41:36.632Z,96773.75
2022-08-21T17:44:16.538Z,96773.97
2022-08-21T17:46:48.523Z,96778.84
2022-08-21T17:49:18.129Z,96782.53
2022-08-21T17:51:47.921Z,96786.19
2022-08-21T17:54:17.434Z,96777.16
2022-08-21T17:56:47.686Z,96774.44
2022-08-21T17:59:18.879Z,96785.63
2022-08-21T18:01:48.607Z,96789.66
2022-08-21T18:04:21.560Z,96783.28
2022-08-21T18:06:52.660Z,96776.97
2022-08-21T18:09:23.292Z,96780.84
2022-08-21T18:11:53.789Z,96788.69
2022-08-21T18:14:31.270Z,96779.03
2022-08-21T18:17:02.623Z,96787.22
2022-08-21T18:19:33.055Z,96793.41
2022-08-21T18:22:07.130Z,96792.06
2022-08-21T18:24:41.547Z,96790.38
2022-08-21T18:27:13.610Z,96798.59
2022-08-21T18:29:47.748Z,96801.34
2022-08-21T18:32:31.069Z,96801.50
2022-08-21T18:35:04.036Z,96806.09
2022-08-21T18:37:34.121Z,96805.97
2022-08-21T18:40:03.699Z,96804.06
2022-08-21T18:42:47.894Z,96808.44
2022-08-21T18:45:27.802Z,96808.97
2022-08-21T18:48:04.412Z,96815.41
2022-08-21T18:50:36.608Z,96811.84
2022-08-21T18:53:15.930Z,96810.50
2022-08-21T18:55:54.313Z,96815.50
2022-08-21T18:58:28.448Z,96813.00
2022-08-21T19:01:04.698Z,96818.81
2022-08-21T19:03:38.030Z,96821.03
2022-08-21T19:09:01.736Z,96821.53
2022-08-21T19:11:31.939Z,96819.13
2022-08-21T19:14:04.439Z,96828.59
2022-08-21T19:16:42.081Z,96832.41
2022-08-21T19:19:20.326Z,96825.91
2022-08-21T19:21:51.144Z,96830.53
2022-08-21T19:24:26.356Z,96829.78
2022-08-21T19:26:58.797Z,96827.84
2022-08-21T19:29:35.099Z,96830.06
2022-08-21T19:32:09.297Z,96836.94
2022-08-21T19:34:43.219Z,96833.06
2022-08-21T19:37:17.633Z,96831.41
2022-08-21T19:39:50.270Z,96832.63
2022-08-21T19:45:13.088Z,96834.41
2022-08-21T19:47:51.370Z,96833.13
2022-08-21T19:50:23.063Z,96836.25
2022-08-21T19:52:53.839Z,96831.88
2022-08-21T19:55:24.807Z,96833.72
2022-08-21T19:57:56.518Z,96827.69
2022-08-21T20:00:27.635Z,96822.81
2022-08-21T20:02:59.629Z,96821.59
2022-08-21T20:08:21.487Z,96821.91
2022-08-21T20:10:52.329Z,96826.19
2022-08-21T20:13:23.343Z,96826.88
2022-08-21T20:15:53.863Z,96823.78
2022-08-21T20:21:44.035Z,96826.19
2022-08-21T20:24:16.561Z,96829.72
2022-08-21T20:26:49.431Z,96815.47
2022-08-21T20:32:12.530Z,96813.19
2022-08-21T20:34:46.072Z,96815.81
2022-08-21T20:40:15.934Z,96818.31
2022-08-21T20:42:54.338Z,96817.88
2022-08-21T20:45:28.518Z,96824.19
2022-08-21T20:48:05.202Z,96822.56
2022-08-21T20:50:44.629Z,96827.66
2022-08-21T20:53:21.481Z,96826.06
2022-08-21T20:55:54.165Z,96819.69
2022-08-21T20:58:36.446Z,96820.63
2022-08-21T21:01:10.775Z,96815.19
2022-08-21T21:03:47.979Z,96809.50
2022-08-21T21:06:25.784Z,96801.97
2022-08-21T21:09:02.908Z,96806.56
2022-08-21T21:11:39.733Z,96809.25
2022-08-21T21:14:18.224Z,96807.66
2022-08-21T21:16:53.748Z,96808.09
2022-08-21T21:19:37.214Z,96810.63
2022-08-21T21:22:13.747Z,96813.66
2022-08-21T21:24:54.081Z,96809.25
2022-08-21T21:27:36.063Z,96814.31
2022-08-21T21:30:12.438Z,96810.91
2022-08-21T21:32:43.300Z,96813.97
2022-08-21T21:35:17.420Z,96812.50
2022-08-21T21:38:12.722Z,96822.91
2022-08-21T21:40:57.281Z,96813.78
2022-08-21T21:43:48.146Z,96820.78
2022-08-21T21:46:38.009Z,96819.47
2022-08-21T21:49:35.186Z,96807.53
2022-08-21T21:52:22.816Z,96810.91
2022-08-21T21:55:26.684Z,96811.44
2022-08-21T21:58:25.043Z,96818.25
2022-08-21T22:01:04.140Z,96810.63
2022-08-21T22:03:43.045Z,96810.41
2022-08-21T22:06:24.954Z,96814.09
2022-08-21T22:09:09.318Z,96814.50
2022-08-21T22:12:03.934Z,96818.81
2022-08-21T22:14:38.307Z,96812.03
2022-08-21T22:17:24.109Z,96814.31
2022-08-21T22:19:57.428Z,96815.22
2022-08-21T22:22:30.481Z,96824.41
2022-08-21T22:25:07.418Z,96819.19
2022-08-21T22:27:41.900Z,96811.47
2022-08-21T22:30:17.476Z,96812.91
2022-08-21T22:35:39.393Z,96839.41
2022-08-21T22:38:33.301Z,96849.22
2022-08-21T22:41:17.498Z,96835.81
2022-08-21T22:43:57.339Z,96835.84
2022-08-21T22:46:35.161Z,96838.69
2022-08-21T22:49:12.341Z,96841.25
2022-08-21T22:51:44.965Z,96840.53
2022-08-21T22:54:24.017Z,96840.63
2022-08-21T22:57:02.931Z,96838.22
2022-08-21T22:59:37.628Z,96846.72
2022-08-21T23:02:25.367Z,96842.69
2022-08-21T23:05:00.669Z,96840.94
2022-08-21T23:07:43.029Z,96840.16
2022-08-21T23:10:26.511Z,96842.41
2022-08-21T23:13:09.309Z,96846.59
2022-08-21T23:15:54.794Z,96842.41
2022-08-21T23:18:39.401Z,96843.38
2022-08-21T23:21:21.174Z,96844.44
2022-08-21T23:24:19.234Z,96838.34
2022-08-21T23:27:07.893Z,96846.66
2022-08-21T23:29:52.050Z,96847.94
2022-08-21T23:36:06.598Z,96843.72
2022-08-21T23:39:03.570Z,96848.81
2022-08-21T23:41:45.270Z,96853.53
2022-08-21T23:44:41.062Z,96850.75
2022-08-21T23:47:41.413Z,96847.75
2022-08-21T23:50:17.814Z,96849.31
2022-08-21T23:53:04.962Z,96845.78
2022-08-21T23:56:12.223Z,96844.00
2022-08-21T23:58:50.344Z,96848.59
